Station info - map view · info · telemetry · weather · raw · status · beacons · messages · bulletins · browse · moving · my account
Callsign, ship name or locator: Clear       
It is possible to search using wildcards (*?) after a prefix. Example: OH*
APRS station N66AP - show graphs
Map loading...
Comment: KD0FPN RV6A
Mic-E message: In service
Last status: MT8000FA v1.0
Location: 45°08.52' N 93°13.23' W - locator EN35JD34MB - show map - static map
3.6 miles Northeast bearing 65° from Coon Rapids, Anoka County, Minnesota, United States [?]
4.4 miles Northeast bearing 28° from Fridley, Anoka County, Minnesota, United States
11.4 miles North bearing 11° from Minneapolis, Hennepin County, Minnesota, United States
15.0 miles Northwest bearing 336° from Saint Paul, Ramsey County, Minnesota, United States
Last position: 2018-07-09 17:28:40 EDT (8d 7h28m ago)
2018-07-09 16:28:40 CDT local time at Coon Rapids, United States [?]
Altitude: 925 ft
Course: 190°
Speed: 2 MPH
Last path: N66AP>T5PX5R via WIDE1-1,WIDE2-1,qAR,N0KFB-3 (good)
Positions stored: 27245
Stations near current position of N66AP - show more
callsign distance last heard - EDT      callsign distance last heard - EDT
N0YFE1.0 miles 244°2018-07-18 00:55:25 KE0NXU-101.3 miles 47°2018-07-17 14:03:49
N789PH2.4 miles 85°2018-07-16 20:39:40 N0KFB-113.0 miles 175°2018-07-17 20:30:23
N0KFB-103.0 miles 174°2018-07-16 23:28:19 N0KFB-33.0 miles 174°2018-07-18 00:43:47
KD0KZE3.1 miles 82°2018-07-17 08:42:53 FW32163.5 miles 51°2018-07-18 00:45:29
KD0DWV B3.6 miles 234°2018-07-18 00:46:30 KD0DWV-B3.6 miles 234°2018-07-18 00:46:40
ka0qok4.0 miles 301°2018-07-18 00:49:05 AC0UD4.4 miles 75°2018-07-18 00:50:21
EW67534.5 miles 321°2018-07-18 00:55:01 AK4WQ-124.6 miles 167°2018-07-14 16:54:53
N0KBL-74.9 miles 357°2018-07-08 19:26:21 FW19205.5 miles 178°2018-07-18 00:30:16
FW07936.1 miles 297°2018-07-18 00:55:57 NK0M6.2 miles 165°2018-07-12 14:36:52
N0HOY-106.3 miles 150°2018-07-18 00:40:57 N0HOY6.3 miles 150°2018-07-15 20:41:05
Stations which heard N66AP directly on radio –
callsign pkts first heard - EDT last heard longest (tx => rx) longest at - EDT
N0QVC-1 5 2018-07-09 16:55:44 2018-07-09 17:12:56 EN35FH > EN34JH 72.3 miles 167° 2018-07-09 17:12:56
KC0FXY-2 5 2018-07-09 16:58:08 2018-07-09 17:12:53 EN35FH > EN34PP 62.4 miles 139° 2018-07-09 17:12:53
K0LAV-8 9 2018-07-09 16:49:22 2018-07-09 17:24:17 EN35EG > EN35LB 31.4 miles 120° 2018-07-09 17:11:57
KC9NVV-3 2 2018-07-09 16:56:09 2018-07-09 17:21:58 EN35FC > EN35QG 42.8 miles 76° 2018-07-09 16:56:09
W0KGW-10 2 2018-07-09 16:52:43 2018-07-09 17:18:54 EN35HD > EN36HC 66.0 miles 1° 2018-07-09 16:52:43
KC0VRV 1 2018-07-09 17:22:53 2018-07-09 17:22:53 EN35JD > EN35LE 11.2 miles 81° 2018-07-09 17:22:53
N9XH-4 2 2018-07-09 17:01:58 2018-07-09 17:18:57 EN34EW > EN35TK 68.8 miles 58° 2018-07-09 17:01:58
W0YC-5 22 2018-07-09 16:48:59 2018-07-09 17:24:28 EN35GJ > EN34JX 32.8 miles 157° 2018-07-09 17:15:33
N0AGI-1 27 2018-07-09 16:49:03 2018-07-09 17:23:56 EN35GJ > EN35FB 24.9 miles 188° 2018-07-09 17:15:38
N0AGI-2 3 2018-07-09 16:56:00 2018-07-09 17:09:59 EN35EF > EN34GP 39.3 miles 168° 2018-07-09 17:09:59
N0HOY-10 8 2018-07-09 16:41:32 2018-07-09 17:23:53 EN35FH > EN35KB 26.9 miles 131° 2018-07-09 17:12:54
KE0CRR-10 2 2018-07-09 16:51:47 2018-07-09 17:12:09 EN35HD > EN35IK 20.1 miles 14° 2018-07-09 16:51:47
N0KFB-3 16 2018-07-09 16:39:32 2018-07-09 17:28:40 EN35FI > EN35JC 24.1 miles 138° 2018-07-09 17:13:52
KD9EJA-10 13 2018-07-09 16:49:01 2018-07-09 17:24:25 EN35FC > EN45BG 80.8 miles 82° 2018-07-09 16:55:46
WB0VGI-1 10 2018-07-09 16:49:05 2018-07-09 17:17:54 EN35EE > EN35LN 39.6 miles 46° 2018-07-09 17:08:53
N0TOR-10 26 2018-07-09 16:50:19 2018-07-09 17:23:52 EN35GJ > EN35GC 20.9 miles 173° 2018-07-09 17:15:43
N0ANC-2 18 2018-07-09 16:53:43 2018-07-09 17:17:55 EN35HI > EN25QJ 61.0 miles 274° 2018-07-09 17:17:55

Only position packets which were originated by the station are shown here. The range statistics show some extra long hops, because some digipeaters do not correctly add themselves to the digipeater path. Please check the raw packets.
About this site
This page shows real-time information collected from the Automatic Position Reporting System Internet network (APRS-IS). APRS is used by amateur (ham) radio operators to transmit real-time position information, weather data, telemetry and messages over the radio. A vehicle equipped with a GPS receiver, a VHF transmitter or HF transceiver and a small computer device called a tracker transmits it's location, speed and course in a small data packet, which is then received by a nearby iGate receiving site which forwards the packet on the Internet. Systems connected to the Internet can send information on the APRS-IS without a radio transmitter, or collect and display information transmitted anywhere in the world.
FAQ · Blog · Discussion group · Linking to aprs.fi · AIS sites · Service status · Database statistics · Advertising on aprs.fi · Technical details · API · Change log · Planned changes · Credits and thanks · Terms Of Service · iPhone/iPad APRS